Time;durP1;ratioP1;P1;durP2;ratioP2;P2;SDS_P1;SDS_P2;PMS_P1;PMS_P2;Temp;Humidity;BMP_temperature;BMP_pressure;BME280_temperature;BME280_humidity;BME280_pressure;Samples;Min_cycle;Max_cycle;Signal;HPM_P1;HPM_P2
2023/12/12 00:00:19;;;;;;;19.17;7.00;;;8.40;99.90;;;;;;5018215;28;20099;-88
2023/12/12 00:02:45;;;;;;;18.17;6.83;;;8.40;99.90;;;;;;5018310;28;20040;-87
2023/12/12 00:05:13;;;;;;;14.97;6.20;;;8.40;99.90;;;;;;5035657;28;20042;-88
2023/12/12 00:07:39;;;;;;;17.57;6.47;;;8.30;99.90;;;;;;5018336;28;20036;-88
2023/12/12 00:10:05;;;;;;;21.67;6.70;;;8.30;99.90;;;;;;5036142;28;20026;-88
2023/12/12 00:12:31;;;;;;;17.17;6.43;;;8.30;99.90;;;;;;5019354;28;20044;-87
2023/12/12 00:14:57;;;;;;;14.70;6.10;;;8.20;99.90;;;;;;5021389;28;20018;-88
2023/12/12 00:17:22;;;;;;;17.03;6.00;;;8.20;99.90;;;;;;5038344;28;20119;-88
2023/12/12 00:19:48;;;;;;;15.17;6.13;;;8.20;99.90;;;;;;5037000;28;20490;-88
2023/12/12 00:22:14;;;;;;;22.93;8.10;;;8.20;99.90;;;;;;5019851;28;20620;-87
2023/12/12 00:24:39;;;;;;;16.63;6.87;;;8.20;99.90;;;;;;5018193;28;20453;-88
2023/12/12 00:27:05;;;;;;;18.07;7.30;;;8.20;99.90;;;;;;5018102;28;20034;-87
2023/12/12 00:29:35;;;;;;;16.63;7.30;;;8.20;99.90;;;;;;5019015;28;20036;-87
2023/12/12 00:32:01;;;;;;;16.87;7.50;;;8.20;99.90;;;;;;5035289;28;20040;-88
2023/12/12 00:34:27;;;;;;;16.87;7.73;;;8.20;99.90;;;;;;5035095;28;20037;-88
2023/12/12 00:36:52;;;;;;;23.37;7.70;;;8.20;99.90;;;;;;5034928;28;20025;-87
2023/12/12 00:39:18;;;;;;;16.87;7.57;;;8.30;99.90;;;;;;5017373;28;20044;-88
2023/12/12 00:41:43;;;;;;;19.70;8.03;;;8.30;99.90;;;;;;5034510;28;20030;-88
2023/12/12 00:44:09;;;;;;;14.00;7.80;;;8.30;99.90;;;;;;5016936;28;20123;-88
2023/12/12 00:46:35;;;;;;;15.57;7.73;;;8.30;99.90;;;;;;5034842;28;20022;-89
2023/12/12 00:49:01;;;;;;;16.93;8.43;;;8.20;99.90;;;;;;5034881;28;20029;-89
2023/12/12 00:51:26;;;;;;;19.97;8.37;;;8.30;99.90;;;;;;5017010;28;20041;-88
2023/12/12 00:53:52;;;;;;;19.83;8.30;;;8.30;99.90;;;;;;5017299;28;20032;-89
2023/12/12 00:56:18;;;;;;;18.80;8.50;;;8.30;99.90;;;;;;5034055;28;20437;-89
2023/12/12 00:58:43;;;;;;;16.73;7.90;;;8.30;99.90;;;;;;5017300;28;20041;-89
2023/12/12 01:01:11;;;;;;;18.53;7.57;;;8.30;99.90;;;;;;5017274;28;20068;-89
2023/12/12 01:03:37;;;;;;;19.20;7.53;;;8.20;99.90;;;;;;5034620;28;20029;-88
2023/12/12 01:06:03;;;;;;;16.80;6.80;;;8.20;99.90;;;;;;5016891;28;20095;-87
2023/12/12 01:08:29;;;;;;;11.40;5.37;;;8.20;99.90;;;;;;5034728;28;20038;-89
2023/12/12 01:10:54;;;;;;;12.50;6.33;;;8.10;99.90;;;;;;5017398;28;20026;-87
2023/12/12 01:13:20;;;;;;;17.40;6.67;;;8.10;99.90;;;;;;5034323;28;20068;-89
2023/12/12 01:15:46;;;;;;;15.20;6.13;;;8.10;99.90;;;;;;5016988;28;20044;-87
2023/12/12 01:18:11;;;;;;;16.90;6.13;;;8.00;99.90;;;;;;5033741;28;20117;-88
2023/12/12 01:20:37;;;;;;;12.57;5.87;;;8.00;99.90;;;;;;5017420;28;20033;-88
2023/12/12 01:23:02;;;;;;;12.97;5.63;;;8.00;99.90;;;;;;5017056;28;20033;-88
2023/12/12 01:25:29;;;;;;;19.63;5.90;;;7.90;99.90;;;;;;5016668;28;20132;-88
2023/12/12 01:27:55;;;;;;;18.17;6.37;;;7.90;99.90;;;;;;5017153;28;20048;-88
2023/12/12 01:30:20;;;;;;;14.53;6.03;;;7.90;99.90;;;;;;5034699;28;20392;-89
2023/12/12 01:32:46;;;;;;;14.97;6.30;;;7.80;99.90;;;;;;5016935;28;20501;-88
2023/12/12 01:35:12;;;;;;;19.30;6.40;;;7.80;99.90;;;;;;5016890;28;20037;-88
2023/12/12 01:37:37;;;;;;;21.43;6.20;;;7.70;99.90;;;;;;5034081;28;20026;-88
2023/12/12 01:40:04;;;;;;;19.23;6.70;;;7.60;99.90;;;;;;5034022;28;20050;-88
2023/12/12 01:42:30;;;;;;;14.53;6.03;;;7.60;99.90;;;;;;5034093;28;20021;-89
2023/12/12 01:44:56;;;;;;;18.93;6.50;;;7.60;99.90;;;;;;5016735;28;20052;-88
2023/12/12 01:47:22;;;;;;;16.93;7.17;;;7.50;99.90;;;;;;5016669;28;20115;-88
2023/12/12 01:49:48;;;;;;;17.63;6.40;;;7.50;99.90;;;;;;5033889;28;20025;-88
2023/12/12 01:52:14;;;;;;;17.07;7.20;;;7.40;99.90;;;;;;5016617;28;20072;-88
2023/12/12 01:54:44;;;;;;;18.90;7.47;;;7.40;99.90;;;;;;5016784;28;20034;-88
2023/12/12 01:57:11;;;;;;;19.90;7.33;;;7.30;99.90;;;;;;5016658;28;20148;-88
2023/12/12 01:59:38;;;;;;;15.33;8.13;;;7.30;99.90;;;;;;5016659;28;20029;-87
2023/12/12 02:02:04;;;;;;;19.40;7.87;;;7.30;99.90;;;;;;5016523;28;20030;-88
2023/12/12 02:04:30;;;;;;;20.03;7.97;;;7.20;99.90;;;;;;5033830;28;20038;-89
2023/12/12 02:06:57;;;;;;;15.80;6.97;;;7.20;99.90;;;;;;5017605;28;20116;-87
2023/12/12 02:09:24;;;;;;;23.53;7.97;;;7.20;99.90;;;;;;5038049;28;20025;-88
2023/12/12 02:11:50;;;;;;;17.37;7.83;;;7.10;99.90;;;;;;5019891;28;20243;-88
2023/12/12 02:14:16;;;;;;;20.90;8.37;;;7.10;99.90;;;;;;5039758;28;20038;-88
2023/12/12 02:16:42;;;;;;;17.80;7.93;;;7.00;99.90;;;;;;5021542;28;20037;-88
2023/12/12 02:19:07;;;;;;;19.13;8.07;;;7.00;99.90;;;;;;5037773;28;20029;-89
2023/12/12 02:21:33;;;;;;;20.10;7.77;;;6.90;99.90;;;;;;5037592;28;20034;-88
2023/12/12 02:23:59;;;;;;;19.23;8.63;;;6.90;99.90;;;;;;5019720;28;20164;-88
2023/12/12 02:26:25;;;;;;;19.17;7.93;;;6.90;99.90;;;;;;5037469;28;20440;-88
2023/12/12 02:28:50;;;;;;;13.17;6.97;;;6.80;99.90;;;;;;5019917;28;20128;-88
2023/12/12 02:31:17;;;;;;;15.53;8.10;;;6.80;99.90;;;;;;5037316;28;20393;-87
2023/12/12 02:33:42;;;;;;;13.67;7.30;;;6.80;99.90;;;;;;5038053;28;20056;-88
2023/12/12 02:36:08;;;;;;;18.70;8.27;;;6.70;99.90;;;;;;5038606;28;20474;-87
2023/12/12 02:38:34;;;;;;;18.57;7.40;;;6.70;99.90;;;;;;5020720;28;20056;-87
2023/12/12 02:40:59;;;;;;;19.13;7.97;;;6.60;99.90;;;;;;5020417;28;20041;-87
2023/12/12 02:43:25;;;;;;;16.83;7.90;;;6.60;99.90;;;;;;5021782;28;20087;-88
2023/12/12 02:45:50;;;;;;;15.57;7.80;;;6.60;99.90;;;;;;5020420;28;20130;-87
2023/12/12 02:48:16;;;;;;;22.30;9.73;;;6.50;99.90;;;;;;5038061;28;20033;-88
2023/12/12 02:50:42;;;;;;;17.90;8.93;;;6.50;99.90;;;;;;5019568;28;20037;-87
2023/12/12 02:53:07;;;;;;;15.43;8.90;;;6.50;99.90;;;;;;5036753;28;20045;-87
2023/12/12 02:55:33;;;;;;;17.33;8.57;;;6.50;99.90;;;;;;5019261;28;20033;-88
2023/12/12 02:57:59;;;;;;;15.60;8.77;;;6.40;99.90;;;;;;5019124;28;20033;-88
2023/12/12 03:00:24;;;;;;;17.40;8.60;;;6.40;99.90;;;;;;5019153;28;20029;-88
2023/12/12 03:02:50;;;;;;;18.93;9.30;;;6.40;99.90;;;;;;5019043;28;20096;-87
2023/12/12 03:05:16;;;;;;;21.50;9.97;;;6.30;99.90;;;;;;5036696;28;20088;-86
2023/12/12 03:07:41;;;;;;;19.97;8.90;;;6.30;99.90;;;;;;5018795;28;20504;-87
2023/12/12 03:10:07;;;;;;;20.63;9.40;;;6.20;99.90;;;;;;5018701;28;20076;-87
2023/12/12 03:12:33;;;;;;;18.73;8.93;;;6.20;99.90;;;;;;5036568;28;20523;-87
2023/12/12 03:14:59;;;;;;;22.30;10.00;;;6.20;99.90;;;;;;5035358;28;20125;-87
2023/12/12 03:17:24;;;;;;;20.67;9.37;;;6.10;99.90;;;;;;5036570;28;20038;-87
2023/12/12 03:19:50;;;;;;;24.53;10.57;;;6.10;99.90;;;;;;5035516;28;20044;-87
2023/12/12 03:22:16;;;;;;;22.90;11.07;;;6.10;99.90;;;;;;5036267;28;20478;-88
2023/12/12 03:24:41;;;;;;;24.57;10.03;;;6.10;99.90;;;;;;5036361;28;20037;-87
2023/12/12 03:27:08;;;;;;;18.77;10.57;;;6.00;99.90;;;;;;5034846;28;20045;-87
2023/12/12 03:29:34;;;;;;;23.77;11.53;;;6.00;99.90;;;;;;5035404;28;20121;-87
2023/12/12 03:32:00;;;;;;;25.23;12.10;;;6.00;99.90;;;;;;5019051;28;20052;-87
2023/12/12 03:34:26;;;;;;;21.07;10.33;;;6.00;99.90;;;;;;5034855;28;20045;-87
2023/12/12 03:36:51;;;;;;;21.50;10.73;;;5.90;99.90;;;;;;5034414;28;20033;-86
2023/12/12 03:39:17;;;;;;;20.17;10.03;;;5.90;99.90;;;;;;5034441;28;20081;-87
2023/12/12 03:41:44;;;;;;;20.87;10.17;;;5.90;99.90;;;;;;5034452;28;20436;-87
2023/12/12 03:44:09;;;;;;;20.40;9.60;;;5.90;99.90;;;;;;5035448;28;20033;-87
2023/12/12 03:46:35;;;;;;;18.77;9.60;;;5.80;99.90;;;;;;5035792;28;20025;-87
2023/12/12 03:49:00;;;;;;;18.30;9.77;;;5.80;99.90;;;;;;5018298;28;20029;-86
2023/12/12 03:51:26;;;;;;;17.57;9.93;;;5.80;99.90;;;;;;5035498;28;20029;-87
2023/12/12 03:53:52;;;;;;;16.23;9.73;;;5.80;99.90;;;;;;5017653;28;20033;-87
2023/12/12 03:56:17;;;;;;;21.47;10.73;;;5.80;99.90;;;;;;5018921;28;20036;-87
2023/12/12 03:58:43;;;;;;;19.90;10.50;;;5.70;99.90;;;;;;5035993;28;20033;-87
2023/12/12 04:01:09;;;;;;;23.07;10.50;;;5.70;99.90;;;;;;5035983;28;20040;-86
2023/12/12 04:03:34;;;;;;;27.03;11.80;;;5.70;99.90;;;;;;5035417;28;20033;-87
2023/12/12 04:06:04;;;;;;;21.47;11.47;;;5.70;99.90;;;;;;5035113;28;20045;-87
2023/12/12 04:08:29;;;;;;;29.50;12.37;;;5.70;99.90;;;;;;5034940;28;20041;-87
2023/12/12 04:10:55;;;;;;;21.27;12.03;;;5.70;99.90;;;;;;5034261;28;20033;-87
2023/12/12 04:13:20;;;;;;;28.97;13.17;;;5.70;99.90;;;;;;5034172;28;20025;-87
2023/12/12 04:15:46;;;;;;;26.00;13.20;;;5.80;99.90;;;;;;5034255;28;20060;-88
2023/12/12 04:18:12;;;;;;;29.97;14.13;;;5.80;99.90;;;;;;5035338;28;20120;-88
2023/12/12 04:20:37;;;;;;;24.43;12.83;;;5.80;99.90;;;;;;5034019;28;20187;-87
2023/12/12 04:23:04;;;;;;;32.30;14.70;;;5.90;99.90;;;;;;5035484;28;20397;-87
2023/12/12 04:25:30;;;;;;;23.60;13.60;;;5.90;99.90;;;;;;5034845;28;20037;-87
2023/12/12 04:27:55;;;;;;;27.13;13.27;;;5.90;99.90;;;;;;5034102;28;20036;-88
2023/12/12 04:30:21;;;;;;;27.03;13.73;;;6.00;99.90;;;;;;5033199;28;20099;-87
2023/12/12 04:32:47;;;;;;;31.70;14.77;;;6.00;99.90;;;;;;5034861;28;20040;-87
2023/12/12 04:35:12;;;;;;;29.63;15.80;;;6.00;99.90;;;;;;5033738;28;20033;-86
2023/12/12 04:37:38;;;;;;;26.97;13.53;;;6.10;99.90;;;;;;5033844;28;20029;-87
2023/12/12 04:40:04;;;;;;;31.30;15.13;;;6.10;99.90;;;;;;5034531;28;20513;-87
2023/12/12 04:42:30;;;;;;;24.23;14.27;;;6.10;99.90;;;;;;5017223;28;20105;-87
2023/12/12 04:44:55;;;;;;;36.73;15.43;;;6.20;99.90;;;;;;5035092;28;20434;-87
2023/12/12 04:47:21;;;;;;;27.70;14.27;;;6.20;99.90;;;;;;5034561;28;20390;-87
2023/12/12 04:49:47;;;;;;;28.30;14.53;;;6.20;99.90;;;;;;5033286;28;20030;-87
2023/12/12 04:52:13;;;;;;;29.93;12.83;;;6.20;99.90;;;;;;5033790;28;20025;-87
2023/12/12 04:54:39;;;;;;;26.13;13.17;;;6.20;99.90;;;;;;5033425;28;20063;-87
2023/12/12 04:57:04;;;;;;;31.00;13.13;;;6.30;99.90;;;;;;5035230;28;20033;-86
2023/12/12 04:59:30;;;;;;;21.47;12.27;;;6.30;99.90;;;;;;5035153;28;20065;-87
2023/12/12 05:01:56;;;;;;;19.23;11.53;;;6.30;99.90;;;;;;5036239;28;20045;-87
2023/12/12 05:04:21;;;;;;;20.70;12.17;;;6.30;99.90;;;;;;5034587;28;20036;-87
2023/12/12 05:06:47;;;;;;;21.57;12.10;;;6.30;99.90;;;;;;5035111;28;20117;-87
2023/12/12 05:09:13;;;;;;;21.67;12.63;;;6.30;99.90;;;;;;5037328;28;20043;-87
2023/12/12 05:11:39;;;;;;;26.33;12.70;;;6.30;99.90;;;;;;5037389;28;20396;-87
2023/12/12 05:14:06;;;;;;;31.33;13.30;;;6.30;99.90;;;;;;5054026;28;20033;-87
2023/12/12 05:16:32;;;;;;;26.70;12.77;;;6.20;99.90;;;;;;5054124;28;20032;-87
2023/12/12 05:18:58;;;;;;;24.10;12.40;;;6.20;99.90;;;;;;5036404;28;20459;-87
2023/12/12 05:21:25;;;;;;;25.97;12.47;;;6.20;99.90;;;;;;5054207;28;20037;-87
2023/12/12 05:23:51;;;;;;;25.90;12.73;;;6.20;99.90;;;;;;5036149;28;20040;-87
2023/12/12 05:26:19;;;;;;;23.30;12.07;;;6.20;99.90;;;;;;5053889;28;20041;-87
2023/12/12 05:28:46;;;;;;;22.50;12.23;;;6.10;99.90;;;;;;5054144;28;20683;-87
2023/12/12 05:31:12;;;;;;;20.93;11.97;;;6.10;99.90;;;;;;5036561;28;20029;-87
2023/12/12 05:33:38;;;;;;;25.93;12.53;;;6.00;99.90;;;;;;5054215;28;20393;-87
2023/12/12 05:36:04;;;;;;;27.03;13.37;;;6.00;99.90;;;;;;5053840;28;20099;-85
2023/12/12 05:38:30;;;;;;;23.63;12.23;;;6.00;99.90;;;;;;5024367;28;20103;-87
2023/12/12 05:40:56;;;;;;;26.93;12.03;;;5.90;99.90;;;;;;5017744;28;20041;-88
2023/12/12 05:43:22;;;;;;;23.33;11.87;;;5.90;99.90;;;;;;5020232;28;20053;-90
2023/12/12 05:45:48;;;;;;;24.33;12.87;;;5.90;99.90;;;;;;5038384;28;20120;-89
2023/12/12 05:48:13;;;;;;;24.50;13.20;;;5.90;99.90;;;;;;5030213;28;20116;-87
2023/12/12 05:50:39;;;;;;;28.07;13.30;;;5.90;99.90;;;;;;5040040;28;20033;-89
2023/12/12 05:53:05;;;;;;;27.30;14.73;;;5.90;99.90;;;;;;5039874;28;20104;-87
2023/12/12 05:55:30;;;;;;;24.93;14.27;;;5.90;99.90;;;;;;5039798;28;20484;-86
2023/12/12 05:57:56;;;;;;;31.67;14.77;;;5.90;99.90;;;;;;5039576;28;20041;-87
2023/12/12 06:00:22;;;;;;;32.50;14.50;;;5.90;99.90;;;;;;5056436;28;20025;-88
2023/12/12 06:02:48;;;;;;;34.40;14.30;;;5.90;99.90;;;;;;5057401;28;20029;-88
2023/12/12 06:05:14;;;;;;;26.50;15.97;;;5.90;99.90;;;;;;5057359;28;20063;-87
2023/12/12 06:07:41;;;;;;;33.73;15.53;;;5.90;99.90;;;;;;5057052;28;20081;-87
2023/12/12 06:10:08;;;;;;;34.03;16.27;;;6.00;99.90;;;;;;5037381;28;20044;-87
2023/12/12 06:12:34;;;;;;;31.87;16.03;;;6.00;99.90;;;;;;5039862;28;20496;-86
2023/12/12 06:15:00;;;;;;;33.50;15.67;;;6.00;99.90;;;;;;5039386;28;20041;-87
2023/12/12 06:17:26;;;;;;;34.17;15.83;;;6.10;99.90;;;;;;5039312;28;20040;-86
2023/12/12 06:19:52;;;;;;;37.67;17.57;;;6.10;99.90;;;;;;5057452;28;20582;-87
2023/12/12 06:22:18;;;;;;;34.43;16.00;;;6.20;99.90;;;;;;5039723;28;20025;-87
2023/12/12 06:24:43;;;;;;;28.17;15.97;;;6.20;99.90;;;;;;5039419;28;20083;-87
2023/12/12 06:27:10;;;;;;;33.67;16.40;;;6.20;99.90;;;;;;5039117;28;20025;-87
2023/12/12 06:29:35;;;;;;;32.13;16.87;;;6.30;99.90;;;;;;5039630;28;20029;-87
2023/12/12 06:32:01;;;;;;;31.67;17.03;;;6.30;99.90;;;;;;5056937;28;20553;-84
2023/12/12 06:34:27;;;;;;;33.93;17.07;;;6.30;99.90;;;;;;5039596;28;20036;-90
2023/12/12 06:36:53;;;;;;;31.93;17.33;;;6.30;99.90;;;;;;5057423;28;20033;-89
2023/12/12 06:39:18;;;;;;;30.07;15.83;;;6.40;99.90;;;;;;5068336;28;20118;-90
2023/12/12 06:41:44;;;;;;;33.50;17.37;;;6.40;99.90;;;;;;5059706;28;20044;-89
2023/12/12 06:44:10;;;;;;;29.87;17.10;;;6.40;99.90;;;;;;5077408;28;20040;-89
2023/12/12 06:46:36;;;;;;;30.53;16.60;;;6.40;99.90;;;;;;5059694;28;20032;-89
2023/12/12 06:49:05;;;;;;;37.50;16.83;;;6.40;99.90;;;;;;5077099;28;20503;-90
2023/12/12 06:51:31;;;;;;;34.37;15.43;;;6.50;99.90;;;;;;5060235;28;20024;-89
2023/12/12 06:53:58;;;;;;;30.00;15.63;;;6.50;99.90;;;;;;5058447;28;20403;-89
2023/12/12 06:56:25;;;;;;;34.53;15.03;;;6.50;99.90;;;;;;5058545;28;20037;-89
2023/12/12 06:58:50;;;;;;;31.23;15.10;;;6.50;99.90;;;;;;5076553;28;20090;-91
2023/12/12 07:01:16;;;;;;;32.63;14.67;;;6.50;99.90;;;;;;5059308;28;20025;-89
2023/12/12 07:03:42;;;;;;;35.17;14.60;;;6.60;99.90;;;;;;5077056;28;20476;-89
2023/12/12 07:06:08;;;;;;;33.07;14.23;;;6.60;99.90;;;;;;5059158;28;20377;-88
2023/12/12 07:08:34;;;;;;;35.33;14.37;;;6.70;99.90;;;;;;5058508;28;20032;-87
2023/12/12 07:11:00;;;;;;;27.77;13.27;;;6.60;99.90;;;;;;5075466;28;20078;-88
2023/12/12 07:13:27;;;;;;;32.83;13.77;;;6.70;99.90;;;;;;5039728;28;20026;-87
2023/12/12 07:15:53;;;;;;;39.20;13.70;;;6.70;99.90;;;;;;5055988;28;20033;-87
2023/12/12 07:18:19;;;;;;;33.47;15.07;;;6.70;99.90;;;;;;5054773;28;20033;-87
2023/12/12 07:20:45;;;;;;;33.70;13.87;;;6.80;99.90;;;;;;5038846;28;20033;-87
2023/12/12 07:23:11;;;;;;;32.33;14.37;;;6.80;99.90;;;;;;5057934;28;20031;-88
2023/12/12 07:25:37;;;;;;;35.60;13.60;;;6.80;99.90;;;;;;5039652;28;20037;-87
2023/12/12 07:28:03;;;;;;;32.40;13.27;;;6.90;99.90;;;;;;5055307;28;20025;-87
2023/12/12 07:30:29;;;;;;;28.60;14.03;;;6.90;99.90;;;;;;5038503;28;20470;-87
2023/12/12 07:32:56;;;;;;;29.97;13.93;;;6.90;99.90;;;;;;5038041;28;20040;-87
2023/12/12 07:35:22;;;;;;;31.67;13.57;;;7.00;99.90;;;;;;5056150;28;20033;-87
2023/12/12 07:37:48;;;;;;;29.33;12.30;;;7.00;99.90;;;;;;5056323;28;20040;-88
2023/12/12 07:40:14;;;;;;;38.90;13.37;;;7.00;99.90;;;;;;5037584;28;20045;-88
2023/12/12 07:42:40;;;;;;;35.93;13.47;;;7.00;99.90;;;;;;5035410;28;20423;-88
2023/12/12 07:45:07;;;;;;;34.87;13.33;;;7.00;99.90;;;;;;5017411;28;20041;-87
2023/12/12 07:47:33;;;;;;;37.73;13.43;;;7.10;99.90;;;;;;5017797;28;20478;-87
2023/12/12 07:49:59;;;;;;;28.77;14.23;;;7.10;99.90;;;;;;5035817;28;20479;-85
2023/12/12 07:52:25;;;;;;;32.53;13.17;;;7.10;99.90;;;;;;5035449;28;20034;-87
2023/12/12 07:54:51;;;;;;;37.77;14.23;;;7.10;99.90;;;;;;5017983;28;20038;-88
2023/12/12 07:57:17;;;;;;;36.23;14.30;;;7.20;99.90;;;;;;5017514;28;20392;-88
2023/12/12 07:59:44;;;;;;;37.77;13.87;;;7.20;99.90;;;;;;5035025;28;20040;-88
2023/12/12 08:02:10;;;;;;;39.17;12.93;;;7.20;99.90;;;;;;5017621;28;20037;-88
2023/12/12 08:04:36;;;;;;;36.17;13.83;;;7.20;99.90;;;;;;5034745;28;20084;-87
2023/12/12 08:07:03;;;;;;;33.60;13.60;;;7.30;99.90;;;;;;5034951;28;20092;-88
2023/12/12 08:09:29;;;;;;;37.67;12.60;;;7.30;99.90;;;;;;5034982;28;20124;-86
2023/12/12 08:11:55;;;;;;;35.47;13.90;;;7.40;99.90;;;;;;5016941;28;20549;-88
2023/12/12 08:14:21;;;;;;;33.63;13.43;;;7.40;99.90;;;;;;5034619;28;20034;-88
2023/12/12 08:16:47;;;;;;;40.30;15.23;;;7.50;99.90;;;;;;5033569;28;20036;-88
2023/12/12 08:19:13;;;;;;;36.53;13.80;;;7.50;99.90;;;;;;5034792;28;20045;-88
2023/12/12 08:21:40;;;;;;;35.97;13.33;;;7.50;99.90;;;;;;5034817;28;20477;-87
2023/12/12 08:24:06;;;;;;;29.13;14.13;;;7.50;99.90;;;;;;5016889;28;20481;-88
2023/12/12 08:26:42;;;;;;;32.10;13.47;;;7.60;99.90;;;;;;5016896;28;20030;-87
2023/12/12 08:29:12;;;;;;;35.17;13.87;;;7.60;99.90;;;;;;5035066;28;20051;-87
2023/12/12 08:31:38;;;;;;;37.77;13.67;;;7.60;99.90;;;;;;5033435;28;20029;-87
2023/12/12 08:34:04;;;;;;;34.70;13.03;;;7.60;99.90;;;;;;5034550;28;20113;-87
2023/12/12 08:36:29;;;;;;;38.37;13.50;;;7.70;99.90;;;;;;5033370;28;20029;-87
2023/12/12 08:38:56;;;;;;;34.17;11.60;;;7.70;99.90;;;;;;5033363;28;20164;-88
2023/12/12 08:41:22;;;;;;;37.50;12.87;;;7.70;99.90;;;;;;5033953;28;20116;-87
2023/12/12 08:43:48;;;;;;;33.83;13.00;;;7.80;99.90;;;;;;5034608;28;20061;-88
2023/12/12 08:46:13;;;;;;;32.87;12.40;;;7.80;99.90;;;;;;5034557;28;20473;-88
2023/12/12 08:48:39;;;;;;;29.73;10.80;;;7.90;99.90;;;;;;5033484;28;20064;-88
2023/12/12 08:51:05;;;;;;;27.60;11.00;;;7.90;99.90;;;;;;5034632;28;20029;-86
2023/12/12 08:53:31;;;;;;;29.40;10.50;;;8.00;99.90;;;;;;5034446;28;20116;-87
2023/12/12 08:55:56;;;;;;;29.33;10.03;;;8.10;99.90;;;;;;5017252;28;20037;-87
2023/12/12 08:58:23;;;;;;;26.23;9.53;;;8.00;99.90;;;;;;5034799;28;20030;-87
2023/12/12 09:00:51;;;;;;;31.27;9.83;;;8.10;99.90;;;;;;5034523;28;20025;-87
2023/12/12 09:03:17;;;;;;;32.77;9.97;;;8.20;99.90;;;;;;5033673;28;20040;-87
2023/12/12 09:05:44;;;;;;;34.17;10.30;;;8.20;99.90;;;;;;5034405;28;20037;-87
2023/12/12 09:08:10;;;;;;;38.03;9.20;;;8.30;99.90;;;;;;5017310;28;20184;-87
2023/12/12 09:10:36;;;;;;;33.80;10.20;;;8.40;99.90;;;;;;5033828;28;20041;-87
2023/12/12 09:13:05;;;;;;;34.90;9.57;;;8.40;99.90;;;;;;5033790;28;20036;-87
2023/12/12 09:15:33;;;;;;;29.27;8.20;;;8.50;99.90;;;;;;5018209;28;20042;-88
2023/12/12 09:17:59;;;;;;;28.47;9.80;;;8.60;99.90;;;;;;5034268;28;20049;-87
2023/12/12 09:20:25;;;;;;;34.07;8.60;;;8.60;99.90;;;;;;5034150;28;20045;-87
2023/12/12 09:22:50;;;;;;;26.87;7.10;;;8.60;99.90;;;;;;5015962;28;20029;-86
2023/12/12 09:25:16;;;;;;;27.33;7.80;;;8.70;99.90;;;;;;5034114;28;20050;-85
2023/12/12 09:27:42;;;;;;;28.07;8.03;;;8.80;99.90;;;;;;5036703;28;20048;-87
2023/12/12 09:30:08;;;;;;;24.37;7.13;;;8.80;99.90;;;;;;5035270;28;20040;-87
2023/12/12 09:32:34;;;;;;;18.83;6.27;;;8.90;99.90;;;;;;5035199;28;20037;-86
2023/12/12 09:34:59;;;;;;;25.50;7.17;;;8.90;99.90;;;;;;5018427;28;20043;-86
2023/12/12 09:37:25;;;;;;;27.40;7.17;;;9.00;99.90;;;;;;5035323;28;20113;-85
2023/12/12 09:39:50;;;;;;;26.00;6.67;;;9.00;99.90;;;;;;5033872;28;20041;-87
2023/12/12 09:42:22;;;;;;;23.70;7.00;;;9.00;99.90;;;;;;5035192;28;20048;-87
2023/12/12 09:44:57;;;;;;;18.40;6.17;;;9.10;99.90;;;;;;5017767;28;20037;-87
2023/12/12 09:47:23;;;;;;;28.27;6.93;;;9.20;99.90;;;;;;5019978;28;20029;-87
2023/12/12 09:49:51;;;;;;;21.77;5.73;;;9.20;99.90;;;;;;5035814;28;20041;-87
2023/12/12 09:52:17;;;;;;;15.27;5.05;;;9.30;99.90;;;;;;5038381;28;20029;-87
2023/12/12 09:54:43;;;;;;;21.93;6.30;;;9.50;99.90;;;;;;5034491;28;20070;-87
2023/12/12 09:57:11;;;;;;;15.70;4.47;;;9.70;99.90;;;;;;5017335;28;20042;-87
2023/12/12 09:59:39;;;;;;;16.52;4.72;;;10.00;99.90;;;;;;5016179;28;20095;-88
2023/12/12 10:02:05;;;;;;;23.20;5.35;;;10.30;99.90;;;;;;5033505;28;20026;-87
2023/12/12 10:04:31;;;;;;;22.00;5.50;;;10.40;99.90;;;;;;5033570;28;20531;-87
2023/12/12 10:06:59;;;;;;;23.60;5.47;;;10.50;99.90;;;;;;5017386;28;20025;-87
2023/12/12 10:09:25;;;;;;;27.70;5.63;;;10.50;99.90;;;;;;5016419;28;20032;-88
2023/12/12 10:11:51;;;;;;;19.42;5.28;;;10.60;99.90;;;;;;5034142;28;20030;-87
2023/12/12 10:14:36;;;;;;;15.95;4.72;;;10.60;99.90;;;;;;5032845;28;20036;-88
2023/12/12 10:17:04;;;;;;;17.55;5.05;;;10.70;99.90;;;;;;5016545;28;20048;-88
2023/12/12 10:19:30;;;;;;;17.33;4.88;;;10.70;99.90;;;;;;5015915;28;20116;-87
2023/12/12 10:21:56;;;;;;;15.07;4.97;;;10.70;99.90;;;;;;5015955;28;20083;-88
2023/12/12 10:24:25;;;;;;;15.65;4.43;;;10.70;99.90;;;;;;5032702;28;20120;-85
2023/12/12 10:26:51;;;;;;;13.32;4.95;;;10.80;99.90;;;;;;5032989;28;20136;-87
2023/12/12 10:29:20;;;;;;;17.80;4.80;;;10.80;99.90;;;;;;5035214;28;20073;-87
2023/12/12 10:31:46;;;;;;;19.77;5.10;;;10.90;99.90;;;;;;5020077;28;20119;-88
2023/12/12 10:34:12;;;;;;;16.48;4.30;;;11.00;99.90;;;;;;5020251;28;20481;-88
2023/12/12 10:36:41;;;;;;;17.33;4.75;;;11.00;99.90;;;;;;5036443;28;20168;-88
2023/12/12 10:39:14;;;;;;;14.85;4.43;;;11.10;99.90;;;;;;5037343;28;20049;-88
2023/12/12 10:41:40;;;;;;;15.75;4.95;;;11.20;99.90;;;;;;5038189;28;20085;-88
2023/12/12 10:44:08;;;;;;;16.25;4.07;;;11.30;99.90;;;;;;5019828;28;20187;-86
2023/12/12 10:46:37;;;;;;;18.02;4.47;;;11.40;99.90;;;;;;5036641;28;20041;-88
2023/12/12 10:49:03;;;;;;;12.20;3.67;;;11.50;99.90;;;;;;5037088;28;20560;-88
2023/12/12 10:51:29;;;;;;;17.20;3.90;;;11.70;99.90;;;;;;5037791;28;20064;-88
2023/12/12 10:53:55;;;;;;;14.88;3.97;;;12.10;99.90;;;;;;5019464;28;20120;-87
2023/12/12 10:56:21;;;;;;;16.27;3.30;;;12.30;99.90;;;;;;5019380;28;20041;-88
2023/12/12 10:58:50;;;;;;;11.07;3.17;;;12.50;99.90;;;;;;5036335;28;20091;-88
2023/12/12 11:01:16;;;;;;;12.88;2.63;;;12.70;99.90;;;;;;5019803;28;20040;-87
2023/12/12 11:03:43;;;;;;;15.38;3.45;;;12.90;99.90;;;;;;5037031;28;20041;-87
2023/12/12 11:06:09;;;;;;;15.02;2.72;;;13.10;99.90;;;;;;5037407;28;20033;-87
2023/12/12 11:08:35;;;;;;;13.93;3.55;;;13.50;99.90;;;;;;5019302;28;20052;-87
2023/12/12 11:11:11;;;;;;;13.60;3.60;;;13.80;99.90;;;;;;5037821;28;20096;-87
2023/12/12 11:13:40;;;;;;;15.80;2.90;;;13.90;99.90;;;;;;5036279;28;20108;-86
2023/12/12 11:16:07;;;;;;;13.25;2.65;;;14.00;99.90;;;;;;5036239;28;20108;-88
2023/12/12 11:18:52;;;;;;;12.18;2.83;;;14.10;99.90;;;;;;5018973;28;20482;-87
2023/12/12 11:21:51;;;;;;;12.10;3.08;;;14.10;99.90;;;;;;5017792;28;20110;-87
2023/12/12 11:24:18;;;;;;;11.63;2.30;;;14.20;99.90;;;;;;5023544;28;20033;-87
2023/12/12 11:26:46;;;;;;;13.93;2.83;;;14.30;99.90;;;;;;5018548;28;20041;-82
2023/12/12 11:29:18;;;;;;;16.23;3.63;;;14.40;99.90;;;;;;5035557;28;20099;-88
2023/12/12 11:32:03;;;;;;;12.00;2.40;;;14.60;99.90;;;;;;5018486;28;20405;-88
2023/12/12 11:34:41;;;;;;;14.18;2.85;;;14.90;99.90;;;;;;5017997;28;20096;-87
2023/12/12 11:37:08;;;;;;;11.45;2.65;;;15.20;99.90;;;;;;5035591;28;20034;-87
2023/12/12 11:39:52;;;;;;;12.85;3.08;;;15.40;99.90;;;;;;5035604;28;20053;-88
2023/12/12 11:42:24;;;;;;;12.77;3.05;;;15.50;99.90;;;;;;5035635;28;20034;-88
2023/12/12 11:44:54;;;;;;;11.77;2.70;;;15.50;99.90;;;;;;5036136;28;20091;-87
2023/12/12 11:47:23;;;;;;;13.90;2.83;;;15.40;99.90;;;;;;5035862;28;20033;-89
2023/12/12 11:49:48;;;;;;;15.27;3.30;;;15.40;99.90;;;;;;5018502;28;20042;-87
2023/12/12 11:52:39;;;;;;;10.10;2.33;;;15.30;99.90;;;;;;5036590;28;20037;-89
2023/12/12 11:55:11;;;;;;;14.55;2.92;;;15.10;99.90;;;;;;5036150;28;20029;-88
2023/12/12 11:57:37;;;;;;;10.65;2.33;;;15.00;99.90;;;;;;5018704;28;20032;-87
2023/12/12 12:00:06;;;;;;;12.75;2.58;;;14.90;99.90;;;;;;5018467;28;20540;-88
2023/12/12 12:02:31;;;;;;;13.55;2.72;;;14.80;99.90;;;;;;5035063;28;20036;-88
2023/12/12 12:04:58;;;;;;;11.95;2.75;;;14.70;99.90;;;;;;5019706;28;20037;-87
2023/12/12 12:07:24;;;;;;;16.55;2.25;;;14.60;99.90;;;;;;5036864;28;20034;-87
2023/12/12 12:09:52;;;;;;;8.88;2.30;;;14.60;99.90;;;;;;5036971;28;20029;-88
2023/12/12 12:12:18;;;;;;;11.35;1.88;;;14.50;99.90;;;;;;5018325;28;20040;-86
2023/12/12 12:14:44;;;;;;;9.65;2.38;;;14.50;99.90;;;;;;5036173;28;20041;-87
2023/12/12 12:17:10;;;;;;;9.63;2.40;;;14.70;99.90;;;;;;5034401;28;20041;-87
2023/12/12 12:19:38;;;;;;;11.95;1.95;;;15.20;99.90;;;;;;5034194;28;20033;-88
2023/12/12 12:22:08;;;;;;;10.48;2.25;;;15.90;99.90;;;;;;5017803;28;20501;-87
2023/12/12 12:24:45;;;;;;;12.25;2.20;;;16.60;99.90;;;;;;5017613;28;20405;-87
2023/12/12 12:27:11;;;;;;;10.88;1.90;;;17.40;99.90;;;;;;5017850;28;20624;-86
2023/12/12 12:29:37;;;;;;;11.23;2.30;;;17.60;99.90;;;;;;5035394;28;20036;-88
2023/12/12 12:32:32;;;;;;;10.75;2.35;;;17.50;99.90;;;;;;5035449;28;20041;-87
2023/12/12 12:35:11;;;;;;;9.80;2.00;;;17.30;98.60;;;;;;5012979;28;20537;-87
2023/12/12 12:37:38;;;;;;;9.95;1.98;;;17.10;97.50;;;;;;5035670;28;20037;-87